createdAt,value
2017-11-27T00:00:12.265Z,15.18
2017-11-27T00:02:38.397Z,10.32
2017-11-27T00:05:04.537Z,8.32
2017-11-27T00:07:30.645Z,13.70
2017-11-27T00:09:56.800Z,9.25
2017-11-27T00:12:22.928Z,11.57
2017-11-27T00:14:49.814Z,9.85
2017-11-27T00:17:15.964Z,10.63
2017-11-27T00:19:42.162Z,10.80
2017-11-27T00:22:09.250Z,10.18
2017-11-27T00:24:36.197Z,11.65
2017-11-27T00:27:03.093Z,11.30
2017-11-27T00:29:29.358Z,11.07
2017-11-27T00:31:55.485Z,10.60
2017-11-27T00:34:21.610Z,12.63
2017-11-27T00:36:47.728Z,8.30
2017-11-27T00:39:13.967Z,13.77
2017-11-27T00:41:40.092Z,12.15
2017-11-27T00:44:06.268Z,14.07
2017-11-27T00:46:32.610Z,9.20
2017-11-27T00:48:58.742Z,13.65
2017-11-27T00:51:26.208Z,10.63
2017-11-27T00:53:52.501Z,11.60
2017-11-27T00:56:27.709Z,12.95
2017-11-27T00:58:54.066Z,11.52
2017-11-27T01:01:20.418Z,10.18
2017-11-27T01:03:46.904Z,16.52
2017-11-27T01:06:14.014Z,13.45
2017-11-27T01:08:40.361Z,11.15
2017-11-27T01:11:06.682Z,10.98
2017-11-27T01:13:33.007Z,14.80
2017-11-27T01:15:59.349Z,10.38
2017-11-27T01:18:25.725Z,15.07
2017-11-27T01:20:52.073Z,9.40
2017-11-27T01:23:18.394Z,10.68
2017-11-27T01:25:44.752Z,14.25
2017-11-27T01:28:11.102Z,10.00
2017-11-27T01:30:38.212Z,10.32
2017-11-27T01:33:04.540Z,10.18
2017-11-27T01:35:30.880Z,10.45
2017-11-27T01:37:57.205Z,10.05
2017-11-27T01:40:23.532Z,11.57
2017-11-27T01:42:50.018Z,9.57
2017-11-27T01:45:17.141Z,10.18
2017-11-27T01:47:43.554Z,11.57
2017-11-27T01:50:10.594Z,11.63
2017-11-27T01:52:37.687Z,8.98
2017-11-27T01:55:04.164Z,11.75
2017-11-27T01:57:31.641Z,12.90
2017-11-27T01:59:57.770Z,10.13
2017-11-27T02:02:24.302Z,9.30
2017-11-27T02:04:50.424Z,12.73
2017-11-27T02:07:16.565Z,9.90
2017-11-27T02:09:42.837Z,13.77
2017-11-27T02:12:08.963Z,8.15
2017-11-27T02:14:35.285Z,7.47
2017-11-27T02:17:01.629Z,12.57
2017-11-27T02:19:27.974Z,13.98
2017-11-27T02:21:55.094Z,11.63
2017-11-27T02:24:21.477Z,9.48
2017-11-27T02:26:47.870Z,10.45
2017-11-27T02:29:14.195Z,13.40
2017-11-27T02:31:40.535Z,8.85
2017-11-27T02:34:06.873Z,9.45
2017-11-27T02:36:33.312Z,11.77
2017-11-27T02:38:59.682Z,9.48
2017-11-27T02:41:26.043Z,10.80
2017-11-27T02:43:52.384Z,8.38
2017-11-27T02:46:18.738Z,8.60
2017-11-27T02:48:45.279Z,9.20
2017-11-27T02:51:11.611Z,12.15
2017-11-27T02:53:37.968Z,9.70
2017-11-27T02:56:05.067Z,9.60
2017-11-27T02:58:32.108Z,9.45
2017-11-27T03:00:58.476Z,12.77
2017-11-27T03:03:24.714Z,7.30
2017-11-27T03:05:51.803Z,10.20
2017-11-27T03:08:18.042Z,9.07
2017-11-27T03:10:44.162Z,10.75
2017-11-27T03:13:10.567Z,12.40
2017-11-27T03:15:36.936Z,11.38
2017-11-27T03:18:03.405Z,10.55
2017-11-27T03:20:30.530Z,10.05
2017-11-27T03:22:57.598Z,11.43
2017-11-27T03:25:23.918Z,11.60
2017-11-27T03:27:50.233Z,10.35
2017-11-27T03:30:16.575Z,12.55
2017-11-27T03:32:42.979Z,10.88
2017-11-27T03:35:09.386Z,13.13
2017-11-27T03:37:36.524Z,15.18
2017-11-27T03:40:02.882Z,10.77
2017-11-27T03:42:29.233Z,13.70
2017-11-27T03:44:55.607Z,7.82
2017-11-27T03:47:22.665Z,11.10
2017-11-27T03:49:49.597Z,12.07
2017-11-27T03:52:15.890Z,15.27
2017-11-27T03:54:42.054Z,8.90
2017-11-27T03:57:08.385Z,10.30
2017-11-27T03:59:34.511Z,8.55
2017-11-27T04:02:00.853Z,10.57
2017-11-27T04:04:27.163Z,10.20
2017-11-27T04:06:54.251Z,10.02
2017-11-27T04:09:20.617Z,12.05
2017-11-27T04:11:46.972Z,9.88
2017-11-27T04:14:13.693Z,16.45
2017-11-27T04:16:39.838Z,13.35
2017-11-27T04:19:06.218Z,11.85
2017-11-27T04:21:33.001Z,13.00
2017-11-27T04:24:00.106Z,7.00
2017-11-27T04:26:26.503Z,10.35
2017-11-27T04:28:52.852Z,6.95
2017-11-27T04:31:19.904Z,10.57
2017-11-27T04:33:46.836Z,9.48
2017-11-27T04:36:12.961Z,6.70
2017-11-27T04:38:39.245Z,11.32
2017-11-27T04:41:06.142Z,7.57
2017-11-27T04:43:32.279Z,7.72
2017-11-27T04:45:58.422Z,8.77
2017-11-27T04:48:24.589Z,10.48
2017-11-27T04:50:51.551Z,6.75
2017-11-27T04:53:17.685Z,8.43
2017-11-27T04:55:44.139Z,7.40
2017-11-27T04:58:10.330Z,13.48
2017-11-27T05:00:36.462Z,11.40
2017-11-27T05:03:03.529Z,11.40
2017-11-27T05:05:29.662Z,7.75
2017-11-27T05:07:55.769Z,8.70
2017-11-27T05:10:22.119Z,8.70
2017-11-27T05:12:48.448Z,8.20
2017-11-27T05:15:14.779Z,10.85
2017-11-27T05:17:41.118Z,10.45
2017-11-27T05:20:07.423Z,9.07
2017-11-27T05:22:33.789Z,7.70
2017-11-27T05:25:00.124Z,10.07
2017-11-27T05:27:26.462Z,10.98
2017-11-27T05:29:52.800Z,13.65
2017-11-27T05:32:19.177Z,6.32
2017-11-27T05:34:45.591Z,9.65
2017-11-27T05:37:11.924Z,4.20
2017-11-27T05:39:38.295Z,9.27
2017-11-27T05:42:04.669Z,8.43
2017-11-27T05:44:31.809Z,10.45
2017-11-27T05:46:58.127Z,7.10
2017-11-27T05:49:24.469Z,9.23
2017-11-27T05:51:50.813Z,6.53
2017-11-27T05:54:17.158Z,4.47
2017-11-27T05:56:43.460Z,7.12
2017-11-27T05:59:09.858Z,8.43
2017-11-27T06:01:36.225Z,4.68
2017-11-27T06:04:02.606Z,6.80
2017-11-27T06:06:29.719Z,6.40
2017-11-27T06:08:56.100Z,5.70
2017-11-27T06:11:23.201Z,8.90
2017-11-27T06:13:50.074Z,7.20
2017-11-27T06:16:16.481Z,4.10
2017-11-27T06:18:43.294Z,4.05
2017-11-27T06:21:09.606Z,5.10
2017-11-27T06:23:35.979Z,8.52
2017-11-27T06:26:02.316Z,6.35
2017-11-27T06:28:28.627Z,5.25
2017-11-27T06:30:54.993Z,8.75
2017-11-27T06:33:21.196Z,4.80
2017-11-27T06:35:47.523Z,6.60
2017-11-27T06:38:14.670Z,14.50
2017-11-27T06:40:40.798Z,5.47
2017-11-27T06:43:06.932Z,6.70
2017-11-27T06:45:33.294Z,4.57
2017-11-27T06:47:59.422Z,5.87
2017-11-27T06:50:26.507Z,8.25
2017-11-27T06:52:53.582Z,6.05
2017-11-27T06:55:19.922Z,5.22
2017-11-27T06:57:46.237Z,4.35
2017-11-27T07:00:12.586Z,5.97
2017-11-27T07:02:38.901Z,6.57
2017-11-27T07:05:05.225Z,7.43
2017-11-27T07:07:31.606Z,3.17
2017-11-27T07:09:57.978Z,7.30
2017-11-27T07:12:25.079Z,6.28
2017-11-27T07:14:51.694Z,11.27
2017-11-27T07:17:18.786Z,6.72
2017-11-27T07:19:45.117Z,7.65
2017-11-27T07:22:11.450Z,3.50
2017-11-27T07:24:37.799Z,7.07
2017-11-27T07:27:04.225Z,5.05
2017-11-27T07:29:31.365Z,9.45
2017-11-27T07:31:58.455Z,5.80
2017-11-27T07:34:25.617Z,5.50
2017-11-27T07:36:51.937Z,6.03
2017-11-27T07:39:24.335Z,6.22
2017-11-27T07:41:51.607Z,5.65
2017-11-27T07:44:18.288Z,7.50
2017-11-27T07:46:44.588Z,9.05
2017-11-27T07:49:11.666Z,6.68
2017-11-27T07:51:38.034Z,7.00
2017-11-27T07:54:04.354Z,9.73
2017-11-27T07:56:30.472Z,8.52
2017-11-27T07:58:56.915Z,9.70
2017-11-27T08:01:24.016Z,7.45
2017-11-27T08:03:50.359Z,6.45
2017-11-27T08:06:23.392Z,7.57
2017-11-27T08:08:51.243Z,9.00
2017-11-27T08:11:17.447Z,8.60
2017-11-27T08:16:40.795Z,9.82
2017-11-27T08:19:07.063Z,7.20
2017-11-27T08:21:33.190Z,7.30
2017-11-27T08:23:59.383Z,11.63
2017-11-27T08:26:26.295Z,7.40
2017-11-27T08:28:52.458Z,6.40
2017-11-27T08:31:18.667Z,7.05
2017-11-27T08:33:44.862Z,7.75
2017-11-27T08:36:11.165Z,6.30
2017-11-27T08:38:37.318Z,6.35
2017-11-27T08:41:03.526Z,6.57
2017-11-27T08:43:29.851Z,5.65
2017-11-27T08:46:11.030Z,5.70
2017-11-27T08:48:37.138Z,9.02
2017-11-27T08:51:03.310Z,6.68
2017-11-27T08:53:29.430Z,4.93
2017-11-27T08:55:59.594Z,5.47
2017-11-27T08:58:28.071Z,6.97
2017-11-27T09:00:54.199Z,11.68
2017-11-27T09:03:21.038Z,8.93
2017-11-27T09:05:47.183Z,9.02
2017-11-27T09:08:13.283Z,9.00
2017-11-27T09:10:40.136Z,7.20
2017-11-27T09:13:10.799Z,8.13
2017-11-27T09:15:36.940Z,7.70
2017-11-27T09:18:03.066Z,7.68
2017-11-27T09:20:29.171Z,6.45
2017-11-27T09:22:55.340Z,5.25
2017-11-27T09:25:21.484Z,7.62
2017-11-27T09:27:47.661Z,5.90
2017-11-27T09:30:13.784Z,5.78
2017-11-27T09:32:41.894Z,7.50
2017-11-27T09:35:08.053Z,6.78
2017-11-27T09:37:34.240Z,7.03
2017-11-27T09:40:00.410Z,6.82
2017-11-27T09:42:26.552Z,6.72
2017-11-27T09:44:52.750Z,4.32
2017-11-27T09:47:18.952Z,6.62
2017-11-27T09:49:48.047Z,4.07
2017-11-27T09:52:14.181Z,4.57
2017-11-27T09:54:40.285Z,5.47
2017-11-27T09:57:06.429Z,4.37
2017-11-27T09:59:32.558Z,5.00
2017-11-27T10:01:58.764Z,6.65
2017-11-27T10:04:25.007Z,7.37
2017-11-27T10:06:54.089Z,6.10
2017-11-27T10:09:20.262Z,6.45
2017-11-27T10:11:46.524Z,4.25
2017-11-27T10:14:12.732Z,5.05
2017-11-27T10:16:38.925Z,5.00
2017-11-27T10:19:05.934Z,4.45
2017-11-27T10:21:32.104Z,3.70
2017-11-27T10:24:01.882Z,4.87
2017-11-27T10:26:28.151Z,6.00
2017-11-27T10:28:54.361Z,5.57
2017-11-27T10:31:20.667Z,4.53
2017-11-27T10:33:46.897Z,7.47
2017-11-27T10:36:13.054Z,6.47
2017-11-27T10:38:39.264Z,3.65
2017-11-27T10:41:10.140Z,3.87
2017-11-27T10:43:36.450Z,3.72
2017-11-27T10:46:02.664Z,6.25
2017-11-27T10:48:28.893Z,4.68
2017-11-27T10:50:55.147Z,4.72
2017-11-27T10:53:21.511Z,4.10
2017-11-27T10:55:47.629Z,8.32
2017-11-27T10:58:19.822Z,4.55
2017-11-27T11:00:52.810Z,4.00
2017-11-27T11:03:19.009Z,4.05
2017-11-27T11:05:45.195Z,3.70
2017-11-27T11:08:11.497Z,4.55
2017-11-27T11:10:38.427Z,3.67
2017-11-27T11:13:04.589Z,3.53
2017-11-27T11:15:34.400Z,3.47
2017-11-27T11:18:03.583Z,4.22
2017-11-27T11:20:29.754Z,3.53
2017-11-27T11:22:56.617Z,6.35
2017-11-27T11:25:22.759Z,4.20
2017-11-27T11:27:48.878Z,3.95
2017-11-27T11:30:14.998Z,3.40
2017-11-27T11:32:47.010Z,3.80
2017-11-27T11:35:13.155Z,2.58
2017-11-27T11:37:39.381Z,2.97
2017-11-27T11:40:06.223Z,2.50
2017-11-27T11:42:32.385Z,2.97
2017-11-27T11:44:58.537Z,2.55
2017-11-27T11:47:24.649Z,2.60
2017-11-27T11:49:50.729Z,3.35
2017-11-27T11:52:21.441Z,2.15
2017-11-27T11:54:48.323Z,3.25
2017-11-27T11:57:14.497Z,2.65
2017-11-27T11:59:40.593Z,3.00
2017-11-27T12:02:06.828Z,2.60
2017-11-27T12:04:32.929Z,3.00
2017-11-27T12:06:59.073Z,3.92
2017-11-27T12:09:31.667Z,3.97
2017-11-27T12:11:57.998Z,3.05
2017-11-27T12:14:24.341Z,3.15
2017-11-27T12:16:50.653Z,3.08
2017-11-27T12:19:17.002Z,3.10
2017-11-27T12:21:43.302Z,2.15
2017-11-27T12:24:13.635Z,2.47
2017-11-27T12:26:40.007Z,4.65
2017-11-27T12:29:06.930Z,2.70
2017-11-27T12:31:33.255Z,3.87
2017-11-27T12:34:00.394Z,3.08
2017-11-27T12:36:26.797Z,3.00
2017-11-27T12:38:53.274Z,2.70
2017-11-27T12:41:19.580Z,2.00
2017-11-27T12:43:49.790Z,2.42
2017-11-27T12:46:16.952Z,2.00
2017-11-27T12:48:44.032Z,2.03
2017-11-27T12:51:11.078Z,2.30
2017-11-27T12:53:37.397Z,2.22
2017-11-27T12:56:03.708Z,2.40
2017-11-27T12:58:30.002Z,4.80
2017-11-27T13:00:58.044Z,2.05
2017-11-27T13:03:24.771Z,1.92
2017-11-27T13:05:51.151Z,3.20
2017-11-27T13:08:17.480Z,2.75
2017-11-27T13:10:43.852Z,2.67
2017-11-27T13:13:10.921Z,1.92
2017-11-27T13:15:37.972Z,2.30
2017-11-27T13:18:08.475Z,2.17
2017-11-27T13:20:34.809Z,9.20
2017-11-27T13:23:01.127Z,2.55
2017-11-27T13:25:27.434Z,2.33
2017-11-27T13:27:54.466Z,2.30
2017-11-27T13:30:20.849Z,3.83
2017-11-27T13:32:47.198Z,3.58
2017-11-27T13:35:15.564Z,2.70
2017-11-27T13:37:41.887Z,2.47
2017-11-27T13:40:08.954Z,2.67
2017-11-27T13:42:36.016Z,3.15
2017-11-27T13:45:02.324Z,2.95
2017-11-27T13:47:28.766Z,2.90
2017-11-27T13:50:01.591Z,2.58
2017-11-27T13:52:28.674Z,2.50
2017-11-27T13:54:54.999Z,2.70
2017-11-27T13:57:22.061Z,3.40
2017-11-27T13:59:48.427Z,2.87
2017-11-27T14:02:14.842Z,2.80
2017-11-27T14:04:41.226Z,2.58
2017-11-27T14:07:09.681Z,2.72
2017-11-27T14:09:36.774Z,3.42
2017-11-27T14:12:03.165Z,2.50
2017-11-27T14:14:29.491Z,3.47
2017-11-27T14:16:56.593Z,3.70
2017-11-27T14:19:23.639Z,2.05
2017-11-27T14:21:54.599Z,2.60
2017-11-27T14:24:21.697Z,3.45
2017-11-27T14:26:48.826Z,5.57
2017-11-27T14:29:15.269Z,3.87
2017-11-27T14:31:41.640Z,3.50
2017-11-27T14:34:07.938Z,3.08
2017-11-27T14:39:05.635Z,2.80
2017-11-27T14:41:31.968Z,4.22
2017-11-27T14:43:59.049Z,2.75
2017-11-27T14:46:26.499Z,2.75
2017-11-27T14:48:52.865Z,3.22
2017-11-27T14:51:19.321Z,3.50
2017-11-27T14:53:45.692Z,2.60
2017-11-27T14:56:15.486Z,4.30
2017-11-27T14:58:42.535Z,3.70
2017-11-27T15:01:09.232Z,3.40
2017-11-27T15:03:35.568Z,3.50
2017-11-27T15:06:02.648Z,5.75
2017-11-27T15:08:29.873Z,3.47
2017-11-27T15:10:56.311Z,3.83
2017-11-27T15:13:22.715Z,4.97
2017-11-27T15:15:50.959Z,3.97
2017-11-27T15:18:17.389Z,8.48
2017-11-27T15:20:43.717Z,5.20
2017-11-27T15:23:10.050Z,4.40
2017-11-27T15:25:37.113Z,5.43
2017-11-27T15:28:03.459Z,3.87
2017-11-27T15:30:29.798Z,6.30
2017-11-27T15:33:01.207Z,4.10
2017-11-27T15:35:27.561Z,3.80
2017-11-27T15:37:53.882Z,4.47
2017-11-27T15:40:20.218Z,5.85
2017-11-27T15:42:46.637Z,4.18
2017-11-27T15:45:13.033Z,3.47
2017-11-27T15:47:44.727Z,3.40
2017-11-27T15:50:11.116Z,4.60
2017-11-27T15:52:37.474Z,4.93
2017-11-27T15:55:03.848Z,4.95
2017-11-27T15:57:30.889Z,4.22
2017-11-27T15:59:57.312Z,4.57
2017-11-27T16:04:55.718Z,6.03
2017-11-27T16:07:22.784Z,4.55
2017-11-27T16:09:49.173Z,4.20
2017-11-27T16:12:15.519Z,6.87
2017-11-27T16:14:42.626Z,4.37
2017-11-27T16:17:08.978Z,6.53
2017-11-27T16:19:41.386Z,5.40
2017-11-27T16:22:07.734Z,4.53
2017-11-27T16:24:34.823Z,4.50
2017-11-27T16:27:01.867Z,4.78
2017-11-27T16:29:28.258Z,4.50
2017-11-27T16:31:54.631Z,5.15
2017-11-27T16:34:21.101Z,5.95
2017-11-27T16:36:51.700Z,5.70
2017-11-27T16:39:18.078Z,8.15
2017-11-27T16:41:44.385Z,5.78
2017-11-27T16:44:11.467Z,4.25
2017-11-27T16:46:37.973Z,5.47
2017-11-27T16:49:05.031Z,6.00
2017-11-27T16:51:31.439Z,4.55
2017-11-27T16:53:58.504Z,6.95
2017-11-27T16:56:26.365Z,6.07
2017-11-27T16:58:52.844Z,5.87
2017-11-27T17:01:20.153Z,4.80
2017-11-27T17:03:46.567Z,5.43
2017-11-27T17:06:12.912Z,4.60
2017-11-27T17:08:39.517Z,4.20
2017-11-27T17:11:06.148Z,4.30
2017-11-27T17:13:37.498Z,8.10
2017-11-27T17:16:03.899Z,5.50
2017-11-27T17:18:30.374Z,4.93
2017-11-27T17:20:56.775Z,8.30
2017-11-27T17:23:23.074Z,11.98
2017-11-27T17:25:49.399Z,8.10
2017-11-27T17:28:15.762Z,5.18
2017-11-27T17:30:42.473Z,4.37
2017-11-27T17:33:11.007Z,8.25
2017-11-27T17:35:37.382Z,6.72
2017-11-27T17:38:03.981Z,7.82
2017-11-27T17:40:30.365Z,5.32
2017-11-27T17:42:57.519Z,6.50
2017-11-27T17:45:23.905Z,5.68
2017-11-27T17:50:21.642Z,6.40
2017-11-27T17:52:48.023Z,6.03
2017-11-27T17:55:14.337Z,5.30
2017-11-27T17:57:40.817Z,5.00
2017-11-27T18:00:07.491Z,4.82
2017-11-27T18:02:34.014Z,5.97
2017-11-27T18:05:00.655Z,5.53
2017-11-27T18:07:27.109Z,6.40
2017-11-27T18:09:53.577Z,6.43
2017-11-27T18:12:19.994Z,5.55
2017-11-27T18:14:46.351Z,5.75
2017-11-27T18:17:12.808Z,5.07
2017-11-27T18:19:40.045Z,6.18
2017-11-27T18:22:06.371Z,4.82
2017-11-27T18:24:32.755Z,5.12
2017-11-27T18:26:59.247Z,5.03
2017-11-27T18:29:25.761Z,4.60
2017-11-27T18:31:52.182Z,5.20
2017-11-27T18:34:18.655Z,4.68
2017-11-27T18:36:44.927Z,5.05
2017-11-27T18:39:11.379Z,5.22
2017-11-27T18:41:37.721Z,7.07
2017-11-27T18:44:04.164Z,5.87
2017-11-27T18:46:31.341Z,9.05
2017-11-27T18:48:58.374Z,4.70
2017-11-27T18:51:25.215Z,7.07
2017-11-27T18:53:51.715Z,7.43
2017-11-27T18:56:18.418Z,7.07
2017-11-27T18:58:45.538Z,6.20
2017-11-27T19:01:12.314Z,6.07
2017-11-27T19:03:38.913Z,5.72
2017-11-27T19:06:05.447Z,5.55
2017-11-27T19:08:31.780Z,7.05
2017-11-27T19:10:58.184Z,7.62
2017-11-27T19:13:25.371Z,5.80
2017-11-27T19:15:52.499Z,6.05
2017-11-27T19:18:18.925Z,7.47
2017-11-27T19:20:45.495Z,4.68
2017-11-27T19:23:12.631Z,3.37
2017-11-27T19:25:39.118Z,3.15
2017-11-27T19:28:06.623Z,3.75
2017-11-27T19:30:33.166Z,2.80
2017-11-27T19:33:00.288Z,2.83
2017-11-27T19:35:27.485Z,2.90
2017-11-27T19:37:53.909Z,4.95
2017-11-27T19:40:21.003Z,5.50
2017-11-27T19:42:47.341Z,5.62
2017-11-27T19:45:13.687Z,6.03
2017-11-27T19:47:40.869Z,6.62
2017-11-27T19:50:07.189Z,9.40
2017-11-27T19:52:34.245Z,8.57
2017-11-27T19:55:02.918Z,6.72
2017-11-27T19:57:29.270Z,7.90
2017-11-27T19:59:56.408Z,9.48
2017-11-27T20:02:23.511Z,9.85
2017-11-27T20:04:53.797Z,9.25
2017-11-27T20:07:20.948Z,9.43
2017-11-27T20:09:47.357Z,20.75
2017-11-27T20:12:13.813Z,10.45
2017-11-27T20:14:42.290Z,7.20
2017-11-27T20:17:09.343Z,5.80
2017-11-27T20:19:35.723Z,6.12
2017-11-27T20:22:02.084Z,10.25
2017-11-27T20:24:28.464Z,6.90
2017-11-27T20:26:55.642Z,4.25
2017-11-27T20:29:22.950Z,2.80
2017-11-27T20:31:49.378Z,2.50
2017-11-27T20:34:16.461Z,4.82
2017-11-27T20:36:42.887Z,7.32
2017-11-27T20:39:09.215Z,4.78
2017-11-27T20:41:35.581Z,2.47
2017-11-27T20:44:01.903Z,3.58
2017-11-27T20:46:28.331Z,4.53
2017-11-27T20:48:54.959Z,3.20
2017-11-27T20:51:21.796Z,5.53
2017-11-27T20:53:48.141Z,3.67
2017-11-27T20:56:14.460Z,4.22
2017-11-27T20:58:41.197Z,3.62
2017-11-27T21:01:07.635Z,2.97
2017-11-27T21:03:34.108Z,4.03
2017-11-27T21:06:00.478Z,3.90
2017-11-27T21:08:26.889Z,5.35
2017-11-27T21:10:53.334Z,5.22
2017-11-27T21:13:19.733Z,6.85
2017-11-27T21:15:46.146Z,6.47
2017-11-27T21:18:12.607Z,8.43
2017-11-27T21:20:39.054Z,9.38
2017-11-27T21:23:05.369Z,9.32
2017-11-27T21:25:31.766Z,7.78
2017-11-27T21:27:58.113Z,9.93
2017-11-27T21:30:25.205Z,9.52
2017-11-27T21:32:52.256Z,8.75
2017-11-27T21:35:18.589Z,8.00
2017-11-27T21:37:44.954Z,6.75
2017-11-27T21:40:11.308Z,10.90
2017-11-27T21:42:37.651Z,8.00
2017-11-27T21:45:03.998Z,6.45
2017-11-27T21:47:30.341Z,2.40
2017-11-27T21:49:56.664Z,2.37
2017-11-27T21:52:23.062Z,2.50
2017-11-27T21:54:49.453Z,2.80
2017-11-27T21:57:15.771Z,2.47
2017-11-27T21:59:42.866Z,1.67
2017-11-27T22:02:09.175Z,2.40
2017-11-27T22:04:36.241Z,3.12
2017-11-27T22:07:03.351Z,3.28
2017-11-27T22:09:29.754Z,3.10
2017-11-27T22:11:56.816Z,2.90
2017-11-27T22:14:23.131Z,3.37
2017-11-27T22:16:50.208Z,2.40
2017-11-27T22:19:16.555Z,5.32
2017-11-27T22:21:42.946Z,4.25
2017-11-27T22:24:09.329Z,2.37
2017-11-27T22:26:35.660Z,3.10
2017-11-27T22:29:02.001Z,4.28
2017-11-27T22:31:29.962Z,2.05
2017-11-27T22:33:56.323Z,3.67
2017-11-27T22:36:22.675Z,1.65
2017-11-27T22:38:49.052Z,2.40
2017-11-27T22:41:15.402Z,2.80
2017-11-27T22:43:41.768Z,3.78
2017-11-27T22:46:08.106Z,2.35
2017-11-27T22:48:34.460Z,2.95
2017-11-27T22:51:00.813Z,3.58
2017-11-27T22:53:27.179Z,3.22
2017-11-27T22:55:53.505Z,5.30
2017-11-27T22:58:19.824Z,2.33
2017-11-27T23:00:46.264Z,3.97
2017-11-27T23:03:12.595Z,2.53
2017-11-27T23:05:38.920Z,3.85
2017-11-27T23:08:05.974Z,3.80
2017-11-27T23:10:32.302Z,3.08
2017-11-27T23:12:59.430Z,2.65
2017-11-27T23:15:25.779Z,2.95
2017-11-27T23:17:52.571Z,2.53
2017-11-27T23:20:18.894Z,2.22
2017-11-27T23:22:45.258Z,2.20
2017-11-27T23:25:11.597Z,4.28
2017-11-27T23:27:37.904Z,2.72
2017-11-27T23:30:04.218Z,2.60
2017-11-27T23:32:30.590Z,3.55
2017-11-27T23:34:56.981Z,3.35
2017-11-27T23:37:23.349Z,3.45
2017-11-27T23:39:49.643Z,4.53
2017-11-27T23:42:15.962Z,2.70
2017-11-27T23:44:42.269Z,4.35
2017-11-27T23:47:08.577Z,4.03
2017-11-27T23:49:35.606Z,3.53
2017-11-27T23:52:01.912Z,3.75
2017-11-27T23:54:33.212Z,2.50
2017-11-27T23:57:04.934Z,3.60
2017-11-27T23:59:31.815Z,2.40
